createdAt,value
2018-02-18T00:01:59.994Z,100252.17
2018-02-18T00:04:28.021Z,100254.32
2018-02-18T00:06:57.245Z,100263.34
2018-02-18T00:09:26.457Z,100259.05
2018-02-18T00:11:55.592Z,100258.19
2018-02-18T00:14:34.802Z,100258.66
2018-02-18T00:17:04.215Z,100263.38
2018-02-18T00:19:34.537Z,100264.23
2018-02-18T00:22:03.006Z,100274.98
2018-02-18T00:24:31.738Z,100260.36
2018-02-18T00:27:01.039Z,100267.66
2018-02-18T00:29:29.966Z,100272.83
2018-02-18T00:31:59.013Z,100262.09
2018-02-18T00:34:26.743Z,100281.00
2018-02-18T00:36:56.425Z,100279.27
2018-02-18T00:39:24.548Z,100275.39
2018-02-18T00:41:52.954Z,100276.67
2018-02-18T00:44:22.538Z,100285.29
2018-02-18T00:46:51.241Z,100273.23
2018-02-18T00:49:20.983Z,100280.55
2018-02-18T00:51:49.059Z,100282.28
2018-02-18T00:54:17.342Z,100295.16
2018-02-18T00:56:45.041Z,100285.28
2018-02-18T00:59:13.144Z,100293.02
2018-02-18T01:01:40.697Z,100307.18
2018-02-18T01:04:09.248Z,100302.47
2018-02-18T01:06:36.800Z,100307.18
2018-02-18T01:09:05.206Z,100312.74
2018-02-18T01:11:32.784Z,100306.72
2018-02-18T01:14:00.332Z,100315.78
2018-02-18T01:16:27.908Z,100316.22
2018-02-18T01:18:55.462Z,100311.49
2018-02-18T01:21:23.025Z,100318.80
2018-02-18T01:23:51.807Z,100308.46
2018-02-18T01:26:19.677Z,100306.75
2018-02-18T01:28:47.327Z,100313.63
2018-02-18T01:31:14.899Z,100325.23
2018-02-18T01:33:42.445Z,100311.92
2018-02-18T01:36:10.005Z,100309.75
2018-02-18T01:38:37.583Z,100308.88
2018-02-18T01:41:05.103Z,100302.02
2018-02-18T01:43:32.685Z,100301.55
2018-02-18T01:46:00.215Z,100306.29
2018-02-18T01:48:27.788Z,100300.70
2018-02-18T01:50:55.320Z,100302.84
2018-02-18T01:53:22.892Z,100306.25
2018-02-18T01:55:50.446Z,100306.71
2018-02-18T01:58:18.027Z,100300.70
2018-02-18T02:00:45.600Z,100305.82
2018-02-18T02:03:13.223Z,100296.80
2018-02-18T02:05:40.784Z,100307.09
2018-02-18T02:08:08.331Z,100297.25
2018-02-18T02:10:35.910Z,100297.20
2018-02-18T02:13:03.438Z,100294.64
2018-02-18T02:15:31.064Z,100298.92
2018-02-18T02:17:58.615Z,100295.95
2018-02-18T02:20:26.195Z,100296.77
2018-02-18T02:22:53.720Z,100298.50
2018-02-18T02:25:21.269Z,100307.95
2018-02-18T02:27:48.852Z,100298.05
2018-02-18T02:30:16.422Z,100300.20
2018-02-18T02:32:44.007Z,100294.59
2018-02-18T02:35:11.535Z,100301.89
2018-02-18T02:37:39.106Z,100305.32
2018-02-18T02:40:06.637Z,100307.91
2018-02-18T02:42:34.208Z,100314.79
2018-02-18T02:45:01.755Z,100307.89
2018-02-18T02:47:30.112Z,100332.37
2018-02-18T02:49:57.672Z,100312.58
2018-02-18T02:52:25.197Z,100315.58
2018-02-18T02:54:52.775Z,100315.61
2018-02-18T02:57:20.301Z,100318.27
2018-02-18T02:59:47.860Z,100314.77
2018-02-18T03:02:15.410Z,100314.79
2018-02-18T03:04:42.961Z,100322.13
2018-02-18T03:07:10.518Z,100314.34
2018-02-18T03:09:38.181Z,100309.62
2018-02-18T03:12:05.743Z,100310.05
2018-02-18T03:14:33.311Z,100315.66
2018-02-18T03:17:00.977Z,100321.16
2018-02-18T03:19:28.627Z,100318.16
2018-02-18T03:21:56.206Z,100322.48
2018-02-18T03:24:23.728Z,100320.35
2018-02-18T03:26:51.279Z,100320.30
2018-02-18T03:29:18.811Z,100313.44
2018-02-18T03:31:46.436Z,100328.41
2018-02-18T03:34:13.958Z,100306.50
2018-02-18T03:36:41.487Z,100306.92
2018-02-18T03:39:09.098Z,100302.56
2018-02-18T03:41:36.640Z,100305.22
2018-02-18T03:44:04.217Z,100298.36
2018-02-18T03:46:31.878Z,100295.41
2018-02-18T03:48:59.452Z,100300.95
2018-02-18T03:51:27.102Z,100297.95
2018-02-18T03:53:54.761Z,100300.08
2018-02-18T03:56:22.311Z,100303.02
2018-02-18T03:58:49.883Z,100298.36
2018-02-18T04:01:17.409Z,100308.69
2018-02-18T04:03:45.007Z,100307.86
2018-02-18T04:06:12.566Z,100314.67
2018-02-18T04:08:40.096Z,100314.64
2018-02-18T04:11:07.668Z,100309.02
2018-02-18T04:13:35.236Z,100311.59
2018-02-18T04:16:02.799Z,100324.02
2018-02-18T04:18:30.370Z,100320.58
2018-02-18T04:20:58.028Z,100324.84
2018-02-18T04:23:25.581Z,100323.52
2018-02-18T04:25:53.134Z,100309.74
2018-02-18T04:28:20.711Z,100327.43
2018-02-18T04:30:48.236Z,100324.35
2018-02-18T04:33:15.815Z,100328.20
2018-02-18T04:35:43.372Z,100322.18
2018-02-18T04:38:10.947Z,100329.09
2018-02-18T04:40:38.494Z,100337.95
2018-02-18T04:43:06.076Z,100325.03
2018-02-18T04:45:33.679Z,100293.72
2018-02-18T04:48:01.203Z,100322.19
2018-02-18T04:50:28.832Z,100314.07
2018-02-18T04:52:56.358Z,100329.35
2018-02-18T04:55:23.906Z,100324.75
2018-02-18T04:57:51.463Z,100327.77
2018-02-18T05:00:19.072Z,100328.20
2018-02-18T05:02:46.628Z,100329.03
2018-02-18T05:05:14.274Z,100332.88
2018-02-18T05:07:41.851Z,100325.59
2018-02-18T05:10:09.418Z,100332.84
2018-02-18T05:12:37.076Z,100336.73
2018-02-18T05:15:04.732Z,100329.42
2018-02-18T05:17:32.279Z,100330.30
2018-02-18T05:19:59.851Z,100336.60
2018-02-18T05:22:27.412Z,100347.82
2018-02-18T05:24:54.938Z,100355.52
2018-02-18T05:27:22.538Z,100353.79
2018-02-18T05:29:50.058Z,100354.67
2018-02-18T05:32:17.618Z,100351.58
2018-02-18T05:34:45.144Z,100352.80
2018-02-18T05:37:12.766Z,100350.25
2018-02-18T05:39:40.325Z,100350.68
2018-02-18T05:42:07.851Z,100353.33
2018-02-18T05:44:35.455Z,100364.00
2018-02-18T05:47:03.926Z,100379.86
2018-02-18T05:49:31.589Z,100358.80
2018-02-18T05:51:59.156Z,100359.29
2018-02-18T05:54:26.738Z,100353.62
2018-02-18T05:56:54.267Z,100362.19
2018-02-18T05:59:21.823Z,100354.53
2018-02-18T06:01:49.372Z,100363.55
2018-02-18T06:04:17.047Z,100363.08
2018-02-18T06:06:44.575Z,100362.23
2018-02-18T06:09:12.131Z,100371.56
2018-02-18T06:11:39.738Z,100353.59
2018-02-18T06:14:07.280Z,100359.66
2018-02-18T06:16:34.842Z,100366.86
2018-02-18T06:19:02.387Z,100362.92
2018-02-18T06:21:29.983Z,100357.02
2018-02-18T06:23:57.506Z,100362.11
2018-02-18T06:26:25.099Z,100360.80
2018-02-18T06:28:52.647Z,100365.13
2018-02-18T06:31:20.304Z,100359.72
2018-02-18T06:33:47.858Z,100364.12
2018-02-18T06:36:15.523Z,100365.22
2018-02-18T06:38:43.053Z,100354.53
2018-02-18T06:41:10.615Z,100371.45
2018-02-18T06:43:38.211Z,100375.61
2018-02-18T06:46:05.866Z,100370.13
2018-02-18T06:48:34.187Z,100340.95
2018-02-18T06:51:01.746Z,100376.66
2018-02-18T06:53:29.317Z,100382.64
2018-02-18T06:55:56.904Z,100378.42
2018-02-18T06:58:24.422Z,100363.80
2018-02-18T07:00:51.973Z,100386.47
2018-02-18T07:03:19.589Z,100380.22
2018-02-18T07:05:47.231Z,100382.92
2018-02-18T07:08:14.832Z,100385.62
2018-02-18T07:10:42.483Z,100386.29
2018-02-18T07:13:10.012Z,100378.30
2018-02-18T07:15:37.587Z,100387.52
2018-02-18T07:18:05.158Z,100392.64
2018-02-18T07:20:32.820Z,100375.52
2018-02-18T07:23:00.390Z,100371.39
2018-02-18T07:25:27.945Z,100368.80
2018-02-18T07:27:55.528Z,100378.73
2018-02-18T07:30:24.000Z,100376.11
2018-02-18T07:32:51.552Z,100381.23
2018-02-18T07:35:20.355Z,100383.48
2018-02-18T07:40:26.307Z,100374.13
2018-02-18T07:42:55.640Z,100365.58
2018-02-18T07:45:23.575Z,100366.45
2018-02-18T07:47:51.168Z,100361.70
2018-02-18T07:50:19.413Z,100369.42
2018-02-18T07:52:49.972Z,100361.78
2018-02-18T07:55:20.920Z,100350.66
2018-02-18T07:57:51.401Z,100349.77
2018-02-18T08:00:21.174Z,100344.94
2018-02-18T08:02:50.310Z,100354.57
2018-02-18T08:05:18.790Z,100363.64
2018-02-18T08:07:47.130Z,100373.53
2018-02-18T08:10:14.689Z,100369.64
2018-02-18T08:12:42.267Z,100376.56
2018-02-18T08:15:09.858Z,100364.14
2018-02-18T08:17:39.002Z,100371.85
2018-02-18T08:20:07.608Z,100362.89
2018-02-18T08:22:38.143Z,100350.44
2018-02-18T08:25:08.600Z,100362.86
2018-02-18T08:27:37.011Z,100358.05
2018-02-18T08:30:06.066Z,100353.89
2018-02-18T08:32:34.333Z,100353.53
2018-02-18T08:35:03.812Z,100345.00
2018-02-18T08:37:31.491Z,100341.98
2018-02-18T08:39:59.015Z,100345.87
2018-02-18T08:42:26.571Z,100338.13
2018-02-18T08:44:54.120Z,100343.28
2018-02-18T08:47:21.689Z,100336.84
2018-02-18T08:49:49.224Z,100326.53
2018-02-18T08:52:16.849Z,100328.70
2018-02-18T08:54:44.405Z,100335.16
2018-02-18T08:57:12.082Z,100330.84
2018-02-18T08:59:39.758Z,100324.84
2018-02-18T09:02:07.288Z,100337.31
2018-02-18T09:04:34.856Z,100329.55
2018-02-18T09:07:02.392Z,100332.13
2018-02-18T09:09:30.593Z,100339.42
2018-02-18T09:11:58.119Z,100338.13
2018-02-18T09:14:26.264Z,100337.69
2018-02-18T09:16:58.848Z,100334.66
2018-02-18T09:19:26.627Z,100340.22
2018-02-18T09:21:54.327Z,100341.94
2018-02-18T09:24:22.606Z,100327.30
2018-02-18T09:26:52.305Z,100328.52
2018-02-18T09:29:22.975Z,100316.94
2018-02-18T09:31:53.559Z,100321.16
2018-02-18T09:34:22.367Z,100334.91
2018-02-18T09:36:51.195Z,100325.92
2018-02-18T09:39:22.526Z,100343.06
2018-02-18T09:41:50.320Z,100327.48
2018-02-18T09:44:18.126Z,100333.53
2018-02-18T09:46:45.693Z,100327.53
2018-02-18T09:49:13.274Z,100330.45
2018-02-18T09:51:40.894Z,100337.69
2018-02-18T09:54:08.507Z,100339.38
2018-02-18T09:56:38.153Z,100338.91
2018-02-18T09:59:05.715Z,100340.76
2018-02-18T10:01:33.810Z,100341.92
2018-02-18T10:04:01.366Z,100348.34
2018-02-18T10:06:28.894Z,100346.92
2018-02-18T10:08:56.447Z,100341.52
2018-02-18T10:11:24.000Z,100350.58
2018-02-18T10:13:51.575Z,100350.75
2018-02-18T10:16:19.100Z,100357.98
2018-02-18T10:18:46.631Z,100342.83
2018-02-18T10:21:14.285Z,100334.83
2018-02-18T10:23:41.860Z,100340.83
2018-02-18T10:26:09.413Z,100333.52
2018-02-18T10:28:37.168Z,100339.94
2018-02-18T10:31:04.749Z,100336.11
2018-02-18T10:33:32.295Z,100345.06
2018-02-18T10:36:01.963Z,100328.77
2018-02-18T10:38:30.195Z,100340.64
2018-02-18T10:40:57.904Z,100334.47
2018-02-18T10:43:25.697Z,100337.67
2018-02-18T10:45:53.235Z,100338.86
2018-02-18T10:48:20.783Z,100333.45
2018-02-18T10:50:48.334Z,100330.76
2018-02-18T10:53:20.032Z,100333.75
2018-02-18T10:55:52.727Z,100332.77
2018-02-18T10:58:24.495Z,100332.52
2018-02-18T11:00:53.551Z,100329.36
2018-02-18T11:03:21.146Z,100323.97
2018-02-18T11:05:48.676Z,100319.78
2018-02-18T11:08:17.225Z,100320.14
2018-02-18T11:10:45.048Z,100328.17
2018-02-18T11:13:12.751Z,100319.94
2018-02-18T11:15:40.335Z,100323.80
2018-02-18T11:18:08.428Z,100324.80
2018-02-18T11:20:36.015Z,100327.33
2018-02-18T11:23:03.559Z,100319.16
2018-02-18T11:25:31.415Z,100314.81
2018-02-18T11:27:59.020Z,100312.75
2018-02-18T11:30:26.720Z,100317.70
2018-02-18T11:32:58.797Z,100310.88
2018-02-18T11:35:26.440Z,100311.19
2018-02-18T11:37:54.533Z,100321.11
2018-02-18T11:40:22.084Z,100312.77
2018-02-18T11:42:50.862Z,100307.43
2018-02-18T11:45:18.651Z,100298.78
2018-02-18T11:47:46.250Z,100311.05
2018-02-18T11:50:13.838Z,100299.36
2018-02-18T11:52:41.367Z,100299.21
2018-02-18T11:55:08.893Z,100292.22
2018-02-18T11:57:36.446Z,100287.14
2018-02-18T12:00:04.027Z,100286.30
2018-02-18T12:02:31.553Z,100291.89
2018-02-18T12:04:59.107Z,100289.16
2018-02-18T12:07:26.631Z,100290.06
2018-02-18T12:09:54.180Z,100282.61
2018-02-18T12:12:21.713Z,100278.52
2018-02-18T12:14:49.261Z,100279.36
2018-02-18T12:17:16.791Z,100267.16
2018-02-18T12:19:44.515Z,100278.84
2018-02-18T12:22:15.718Z,100278.70
2018-02-18T12:24:46.314Z,100266.89
2018-02-18T12:27:16.797Z,100270.14
2018-02-18T12:29:49.674Z,100260.31
2018-02-18T12:32:19.358Z,100263.61
2018-02-18T12:34:47.848Z,100265.11
2018-02-18T12:37:18.237Z,100252.88
2018-02-18T12:39:48.228Z,100256.27
2018-02-18T12:42:15.954Z,100256.81
2018-02-18T12:44:43.488Z,100261.50
2018-02-18T12:47:11.040Z,100251.83
2018-02-18T12:49:38.646Z,100246.24
2018-02-18T12:52:06.197Z,100251.03
2018-02-18T12:54:33.748Z,100250.54
2018-02-18T12:57:01.315Z,100253.61
2018-02-18T12:59:31.652Z,100256.14
2018-02-18T13:02:00.421Z,100263.45
2018-02-18T13:04:29.666Z,100256.45
2018-02-18T13:06:57.377Z,100238.53
2018-02-18T13:09:26.460Z,100240.98
2018-02-18T13:11:54.990Z,100226.09
2018-02-18T13:14:24.158Z,100230.53
2018-02-18T13:16:52.433Z,100228.38
2018-02-18T13:19:20.148Z,100242.45
2018-02-18T13:21:50.167Z,100241.80
2018-02-18T13:24:20.693Z,100238.20
2018-02-18T13:26:48.801Z,100231.69
2018-02-18T13:29:16.385Z,100227.98
2018-02-18T13:31:44.982Z,100228.19
2018-02-18T13:34:12.564Z,100233.87
2018-02-18T13:36:40.143Z,100222.25
2018-02-18T13:39:08.296Z,100171.42
2018-02-18T13:41:36.205Z,100220.30
2018-02-18T13:44:03.743Z,100206.28
2018-02-18T13:46:33.539Z,100209.42
2018-02-18T13:49:03.525Z,100204.90
2018-02-18T13:51:32.403Z,100208.38
2018-02-18T13:54:02.898Z,100208.08
2018-02-18T13:56:33.650Z,100207.49
2018-02-18T13:59:01.387Z,100212.98
2018-02-18T14:01:31.410Z,100216.61
2018-02-18T14:03:59.671Z,100214.84
2018-02-18T14:06:27.743Z,100207.81
2018-02-18T14:08:57.110Z,100209.69
2018-02-18T14:11:25.719Z,100213.01
2018-02-18T14:13:53.689Z,100211.02
2018-02-18T14:16:24.622Z,100203.39
2018-02-18T14:18:52.369Z,100201.23
2018-02-18T14:21:23.702Z,100201.66
2018-02-18T14:23:57.707Z,100189.34
2018-02-18T14:26:28.293Z,100197.87
2018-02-18T14:28:57.634Z,100195.22
2018-02-18T14:31:28.685Z,100188.12
2018-02-18T14:34:00.116Z,100201.70
2018-02-18T14:36:28.547Z,100196.16
2018-02-18T14:38:59.098Z,100188.50
2018-02-18T14:41:38.623Z,100199.72
2018-02-18T14:44:17.998Z,100200.42
2018-02-18T14:46:57.628Z,100187.48
2018-02-18T14:49:36.953Z,100194.34
2018-02-18T14:52:16.417Z,100195.81
2018-02-18T14:57:44.786Z,100177.94
2018-02-18T15:00:12.375Z,100185.47
2018-02-18T15:02:39.916Z,100196.45
2018-02-18T15:05:07.468Z,100198.21
2018-02-18T15:07:35.024Z,100200.95
2018-02-18T15:10:02.571Z,100193.08
2018-02-18T15:12:30.143Z,100187.32
2018-02-18T15:14:58.446Z,100190.02
2018-02-18T15:17:26.005Z,100178.78
2018-02-18T15:19:53.576Z,100171.52
2018-02-18T15:22:21.235Z,100168.61
2018-02-18T15:24:48.793Z,100174.55
2018-02-18T15:27:16.366Z,100175.14
2018-02-18T15:29:43.894Z,100176.85
2018-02-18T15:32:11.419Z,100179.16
2018-02-18T15:34:39.210Z,100173.07
2018-02-18T15:37:06.746Z,100171.58
2018-02-18T15:39:34.300Z,100180.73
2018-02-18T15:42:01.870Z,100171.73
2018-02-18T15:44:29.672Z,100174.33
2018-02-18T15:46:57.220Z,100177.20
2018-02-18T15:49:24.811Z,100169.04
2018-02-18T15:51:52.365Z,100173.86
2018-02-18T15:54:19.916Z,100177.48
2018-02-18T15:56:47.467Z,100170.25
2018-02-18T15:59:15.031Z,100175.14
2018-02-18T16:01:43.169Z,100155.45
2018-02-18T16:04:10.699Z,100174.26
2018-02-18T16:06:38.273Z,100182.27
2018-02-18T16:09:05.879Z,100172.59
2018-02-18T16:11:33.455Z,100170.94
2018-02-18T16:14:00.980Z,100166.55
2018-02-18T16:16:28.507Z,100182.45
2018-02-18T16:18:56.063Z,100183.53
2018-02-18T16:21:23.589Z,100167.78
2018-02-18T16:23:51.138Z,100163.98
2018-02-18T16:26:18.659Z,100158.98
2018-02-18T16:28:46.245Z,100160.30
2018-02-18T16:31:13.771Z,100158.18
2018-02-18T16:33:41.322Z,100173.53
2018-02-18T16:36:08.851Z,100173.30
2018-02-18T16:38:36.431Z,100158.65
2018-02-18T16:41:03.951Z,100172.13
2018-02-18T16:43:31.483Z,100161.30
2018-02-18T16:45:59.034Z,100154.09
2018-02-18T16:48:26.811Z,100152.02
2018-02-18T16:50:54.357Z,100159.58
2018-02-18T16:53:21.891Z,100164.97
2018-02-18T16:55:49.603Z,100167.50
2018-02-18T16:58:17.377Z,100169.02
2018-02-18T17:00:45.033Z,100171.31
2018-02-18T17:03:12.899Z,100172.61
2018-02-18T17:05:40.455Z,100172.78
2018-02-18T17:08:08.307Z,100169.91
2018-02-18T17:10:36.048Z,100172.08
2018-02-18T17:13:03.615Z,100168.19
2018-02-18T17:15:31.184Z,100174.84
2018-02-18T17:17:58.767Z,100174.31
2018-02-18T17:20:26.318Z,100168.50
2018-02-18T17:22:53.847Z,100177.83
2018-02-18T17:25:21.415Z,100169.57
2018-02-18T17:27:49.208Z,100169.79
2018-02-18T17:30:17.600Z,100171.70
2018-02-18T17:32:45.138Z,100169.89
2018-02-18T17:35:12.787Z,100164.39
2018-02-18T17:37:40.355Z,100165.45
2018-02-18T17:40:07.911Z,100164.55
2018-02-18T17:42:35.610Z,100150.24
2018-02-18T17:45:03.179Z,100159.31
2018-02-18T17:47:30.912Z,100158.75
2018-02-18T17:49:58.543Z,100160.03
2018-02-18T17:52:26.321Z,100169.80
2018-02-18T17:54:53.878Z,100170.62
2018-02-18T17:57:21.876Z,100176.78
2018-02-18T17:59:49.477Z,100166.64
2018-02-18T18:02:18.224Z,100162.91
2018-02-18T18:04:45.782Z,100152.44
2018-02-18T18:07:13.752Z,100153.80
2018-02-18T18:09:41.488Z,100156.90
2018-02-18T18:12:09.059Z,100154.77
2018-02-18T18:14:36.691Z,100148.87
2018-02-18T18:17:04.815Z,100141.55
2018-02-18T18:19:32.571Z,100152.78
2018-02-18T18:22:00.188Z,100146.32
2018-02-18T18:24:27.752Z,100141.25
2018-02-18T18:26:55.302Z,100141.84
2018-02-18T18:29:22.906Z,100133.40
2018-02-18T18:31:50.460Z,100136.01
2018-02-18T18:34:18.036Z,100129.16
2018-02-18T18:36:45.593Z,100130.02
2018-02-18T18:39:13.209Z,100142.52
2018-02-18T18:41:40.743Z,100137.69
2018-02-18T18:44:08.296Z,100145.66
2018-02-18T18:46:38.708Z,100135.55
2018-02-18T18:49:06.368Z,100136.80
2018-02-18T18:51:33.899Z,100143.09
2018-02-18T18:54:01.456Z,100146.63
2018-02-18T18:56:29.035Z,100142.86
2018-02-18T18:59:01.669Z,100139.43
2018-02-18T19:01:29.463Z,100152.80
2018-02-18T19:03:57.284Z,100142.07
2018-02-18T19:06:24.923Z,100145.56
2018-02-18T19:08:54.221Z,100148.63
2018-02-18T19:11:22.208Z,100137.88
2018-02-18T19:13:52.447Z,100139.20
2018-02-18T19:16:22.277Z,100136.66
2018-02-18T19:18:52.300Z,100144.75
2018-02-18T19:21:22.239Z,100135.39
2018-02-18T19:23:51.220Z,100144.86
2018-02-18T19:26:19.010Z,100137.98
2018-02-18T19:28:46.584Z,100146.98
2018-02-18T19:31:14.132Z,100150.02
2018-02-18T19:33:41.719Z,100148.42
2018-02-18T19:36:09.248Z,100133.34
2018-02-18T19:38:37.319Z,100134.94
2018-02-18T19:41:04.890Z,100129.75
2018-02-18T19:43:32.595Z,100136.28
2018-02-18T19:46:00.147Z,100138.02
2018-02-18T19:48:27.683Z,100133.28
2018-02-18T19:50:55.404Z,100126.03
2018-02-18T19:53:23.203Z,100119.98
2018-02-18T19:55:51.591Z,100135.91
2018-02-18T19:58:19.351Z,100130.34
2018-02-18T20:00:46.936Z,100136.28
2018-02-18T20:03:14.515Z,100126.50
2018-02-18T20:05:42.440Z,100134.59
2018-02-18T20:08:10.198Z,100126.87
2018-02-18T20:10:37.805Z,100137.65
2018-02-18T20:13:07.050Z,100131.14
2018-02-18T20:15:36.670Z,100109.25
2018-02-18T20:18:04.474Z,100135.94
2018-02-18T20:20:31.998Z,100153.63
2018-02-18T20:22:59.942Z,100148.34
2018-02-18T20:25:31.757Z,100143.53
2018-02-18T20:28:18.346Z,100130.59
2018-02-18T20:30:46.376Z,100128.84
2018-02-18T20:33:16.274Z,100128.63
2018-02-18T20:35:43.859Z,100133.81
2018-02-18T20:38:13.868Z,100123.89
2018-02-18T20:40:42.444Z,100114.91
2018-02-18T20:43:11.227Z,100126.59
2018-02-18T20:45:41.508Z,100118.63
2018-02-18T20:48:13.295Z,100119.51
2018-02-18T20:50:43.549Z,100103.25
2018-02-18T20:53:11.982Z,100103.27
2018-02-18T20:55:39.590Z,100104.98
2018-02-18T20:58:07.112Z,100101.98
2018-02-18T21:00:34.649Z,100093.93
2018-02-18T21:03:02.225Z,100095.43
2018-02-18T21:05:29.769Z,100102.08
2018-02-18T21:07:59.600Z,100104.33
2018-02-18T21:10:27.158Z,100102.95
2018-02-18T21:12:55.976Z,100098.16
2018-02-18T21:15:23.905Z,100097.45
2018-02-18T21:17:51.487Z,100085.39
2018-02-18T21:20:19.006Z,100093.52
2018-02-18T21:22:46.544Z,100081.92
2018-02-18T21:25:14.118Z,100085.53
2018-02-18T21:27:41.640Z,100089.39
2018-02-18T21:30:09.236Z,100087.16
2018-02-18T21:32:36.774Z,100087.08
2018-02-18T21:35:04.367Z,100088.87
2018-02-18T21:37:31.903Z,100093.66
2018-02-18T21:39:59.595Z,100090.20
2018-02-18T21:42:27.155Z,100081.17
2018-02-18T21:44:54.699Z,100085.94
2018-02-18T21:47:22.435Z,100092.84
2018-02-18T21:49:50.011Z,100076.18
2018-02-18T21:52:17.544Z,100074.37
2018-02-18T21:54:45.095Z,100076.54
2018-02-18T21:57:12.651Z,100072.58
2018-02-18T21:59:40.748Z,100071.55
2018-02-18T22:02:09.402Z,100081.77
2018-02-18T22:04:39.214Z,100078.81
2018-02-18T22:07:06.973Z,100073.34
2018-02-18T22:09:36.241Z,100069.39
2018-02-18T22:12:04.265Z,100073.33
2018-02-18T22:14:33.623Z,100077.08
2018-02-18T22:17:02.804Z,100062.98
2018-02-18T22:19:32.366Z,100068.51
2018-02-18T22:22:01.307Z,100060.38
2018-02-18T22:24:29.982Z,100072.08
2018-02-18T22:26:58.176Z,100054.95
2018-02-18T22:29:26.751Z,100078.44
2018-02-18T22:31:55.021Z,100070.78
2018-02-18T22:34:24.119Z,100059.94
2018-02-18T22:36:52.203Z,100061.61
2018-02-18T22:39:20.248Z,100055.16
2018-02-18T22:41:49.611Z,100050.87
2018-02-18T22:44:18.656Z,100056.45
2018-02-18T22:46:47.318Z,100051.06
2018-02-18T22:49:16.191Z,100053.95
2018-02-18T22:51:45.387Z,100047.95
2018-02-18T22:54:13.571Z,100045.36
2018-02-18T22:56:41.692Z,100039.31
2018-02-18T22:59:09.951Z,100029.63
2018-02-18T23:01:41.207Z,100029.15
2018-02-18T23:04:11.233Z,100024.94
2018-02-18T23:06:38.795Z,100025.67
2018-02-18T23:09:06.973Z,100021.38
2018-02-18T23:11:34.935Z,100014.91
2018-02-18T23:14:04.663Z,100007.23
2018-02-18T23:16:32.786Z,100011.00
2018-02-18T23:19:03.093Z,100008.92
2018-02-18T23:21:31.408Z,100012.28
2018-02-18T23:24:01.215Z,100020.44
2018-02-18T23:26:29.050Z,100026.01
2018-02-18T23:28:57.440Z,100012.24
2018-02-18T23:31:27.276Z,100023.83
2018-02-18T23:33:56.724Z,100028.91
2018-02-18T23:36:26.494Z,100038.39
2018-02-18T23:38:54.767Z,100033.62
2018-02-18T23:41:22.292Z,100041.31
2018-02-18T23:43:50.662Z,100029.26
2018-02-18T23:46:18.295Z,100024.65
2018-02-18T23:48:49.251Z,100021.47
2018-02-18T23:51:16.900Z,100029.23
2018-02-18T23:53:45.066Z,100028.41
2018-02-18T23:56:12.627Z,100017.50
2018-02-18T23:58:40.160Z,100018.74
